Main page
METAR-TAF:

METAR-TAF

Airports :

Conakry International Airport

Conakry, Guinea

latitude: 09-34N, longitude: 013-37W, elevation: 26 m

Current weather observation

The report was made 6 hours and 36 minutes ago, at 23:00 UTC
Wind 6 kt from the West
Temperature 27°C
Humidity 84%
Pressure 1011 hPa
Visibility 10 km or more
Scattered clouds at a height of 1500 ft

METAR: GUCY 072300Z 28006KT 9999 SCT015 27/24 Q1011 MOSIG

Time: 05:36 (05:36 UTC)

Forecast

The report was made 36 minutes ago, at 05:00 UTC
Forecast valid from 07 at 06 UTC to 08 at 12 UTC
Wind 6 kt from the West
Visibility 10 km or more
Few clouds at a height of 1600 ft
Scattered clouds at a height of 12000 ft
Becoming
from 07 at 06 UTC to 07 at 10 UTC
Wind 6 kt from the East/Northeast
Scattered clouds at a height of 1500 ft
Scattered clouds at a height of 11000 ft

TAF: GUCY 070500Z 0706/0812 28006KT 9999 FEW016 SCT120 BECMG 0706/0710 06006KT SCT015 SCT110

Weather observations and forecasts of more than 4000 airports (METAR and TAF reports).

The available stations are represented by yellow and red dots on the map.

Hover mouse over dot to see the name of the station.

Then click to see weather observations and forecasts.

To change the map : click on the green buttons with a black cross to zoom in, on the green button with a dash to zoom out, or on the green arrows for adjacent maps.


METAR-TAF: